Time;durP1;ratioP1;P1;durP2;ratioP2;P2;SDS_P1;SDS_P2;PMS_P1;PMS_P2;Temp;Humidity;BMP_temperature;BMP_pressure;BME280_temperature;BME280_humidity;BME280_pressure;Samples;Min_cycle;Max_cycle;Signal;HPM_P1;HPM_P2
2022/09/21 00:01:18;;;;;;;27.13;22.42;;;;;;;23.75;60.32;100320.56;6213678;23;20020;-85
2022/09/21 00:03:46;;;;;;;31.83;22.27;;;;;;;23.59;60.53;100300.63;6215890;23;20024;-86
2022/09/21 00:06:15;;;;;;;27.10;24.00;;;;;;;23.70;60.36;100310.28;6214015;23;20027;-85
2022/09/21 00:08:43;;;;;;;;;;;;;;;23.64;59.90;100326.81;6190737;23;20023;-84
2022/09/21 00:11:18;;;;;;;24.35;20.98;;;;;;;23.63;59.77;100295.84;6190463;23;20184;-86
2022/09/21 00:13:45;;;;;;;23.15;20.52;;;;;;;23.55;59.80;100274.09;6216735;23;20024;-85
2022/09/21 00:16:15;;;;;;;27.08;24.20;;;;;;;23.79;60.05;100299.47;6214522;23;20486;-85
2022/09/21 00:18:42;;;;;;;23.67;20.40;;;;;;;23.57;60.18;100280.25;6214580;23;20027;-85
2022/09/21 00:21:12;;;;;;;22.80;19.48;;;;;;;23.85;59.92;100311.41;6189186;23;20024;-84
2022/09/21 00:23:39;;;;;;;22.92;20.38;;;;;;;23.74;59.91;100319.72;6189660;23;20483;-86
2022/09/21 00:26:18;;;;;;;23.40;21.00;;;;;;;23.50;60.67;100292.31;6217116;23;20460;-86
2022/09/21 00:28:45;;;;;;;20.08;18.05;;;;;;;23.51;60.47;100310.25;6215523;23;20039;-86
2022/09/21 00:31:16;;;;;;;23.40;18.98;;;;;;;23.60;60.28;100305.97;6188902;23;20360;-86
2022/09/21 00:33:43;;;;;;;21.65;18.73;;;;;;;23.39;59.75;100260.75;6188307;23;20043;-85
2022/09/21 00:36:16;;;;;;;21.90;19.52;;;;;;;23.51;59.58;100258.94;6187917;23;20028;-86
2022/09/21 00:38:48;;;;;;;24.08;21.38;;;;;;;23.89;59.27;100304.56;6186649;23;20020;-86
2022/09/21 00:41:15;;;;;;;24.55;21.95;;;;;;;23.79;59.46;100292.94;6187572;23;20020;-85
2022/09/21 00:43:46;;;;;;;23.65;20.40;;;;;;;23.86;59.57;100299.63;6215949;23;20024;-85
2022/09/21 00:46:31;;;;;;;27.45;20.90;;;;;;;23.82;59.52;100297.88;6186025;23;20021;-86
2022/09/21 00:48:58;;;;;;;22.23;19.88;;;;;;;23.70;59.15;100270.38;6165817;23;20020;-86
2022/09/21 00:51:25;;;;;;;22.20;19.63;;;;;;;23.69;59.78;100273.59;6213345;23;20021;-87
2022/09/21 00:54:01;;;;;;;26.60;21.13;;;;;;;23.81;59.42;100296.25;6213874;23;20028;-86
2022/09/21 00:56:29;;;;;;;25.90;19.95;;;;;;;23.77;59.47;100295.34;6187890;23;20095;-86
2022/09/21 00:58:56;;;;;;;27.70;19.90;;;;;;;23.49;59.24;100252.81;6187156;23;20027;-85
2022/09/21 01:01:23;;;;;;;24.23;21.63;;;;;;;23.72;59.33;100299.31;6188363;23;20021;-85
2022/09/21 01:03:52;;;;;;;25.20;20.05;;;;;;;23.73;59.91;100292.44;6187030;23;20024;-85
2022/09/21 01:06:20;;;;;;;27.13;19.73;;;;;;;23.62;59.60;100288.47;6212965;23;20456;-84
2022/09/21 01:08:52;;;;;;;22.75;19.75;;;;;;;23.41;60.03;100249.78;6188798;23;20463;-84
2022/09/21 01:11:48;;;;;;;27.70;20.80;;;;;;;23.56;60.04;100295.72;6189876;23;20494;-84
2022/09/21 01:14:30;;;;;;;26.63;20.92;;;;;;;23.50;59.88;100291.50;6220594;22;20020;-85
2022/09/21 01:17:15;;;;;;;22.58;19.98;;;;;;;23.48;60.00;100294.72;6190518;23;20448;-85
2022/09/21 01:20:22;;;;;;;24.67;21.63;;;;;;;23.14;59.89;100247.97;6189685;23;20027;-86
2022/09/21 01:23:01;;;;;;;26.92;21.30;;;;;;;23.46;60.08;100290.59;6188302;23;20020;-86
2022/09/21 01:25:52;;;;;;;26.52;23.10;;;;;;;23.41;60.37;100301.06;6216300;23;20030;-86
2022/09/21 01:28:43;;;;;;;22.48;20.15;;;;;;;23.41;60.40;100289.69;6189613;23;20030;-84
2022/09/21 01:31:18;;;;;;;23.77;20.30;;;;;;;23.22;60.60;100249.81;6214917;23;20025;-86
2022/09/21 01:33:51;;;;;;;27.55;21.60;;;;;;;23.25;60.60;100251.91;6214083;23;20028;-85
2022/09/21 01:36:23;;;;;;;23.15;20.63;;;;;;;23.45;60.76;100286.91;6214801;23;20021;-86
2022/09/21 01:38:57;;;;;;;24.90;21.20;;;;;;;23.35;60.60;100262.72;6188665;23;20016;-86
2022/09/21 01:41:27;;;;;;;24.75;20.25;;;;;;;23.31;60.81;100243.88;6188594;23;20024;-86
2022/09/21 01:44:07;;;;;;;31.08;21.25;;;;;;;23.53;60.26;100267.97;6188340;23;20021;-86
2022/09/21 01:46:36;;;;;;;26.95;22.02;;;;;;;23.08;60.21;100212.47;6187615;23;20025;-85
2022/09/21 01:49:14;;;;;;;28.23;23.23;;;;;;;23.29;60.39;100251.97;6211658;23;20028;-86
2022/09/21 01:51:47;;;;;;;24.63;21.05;;;;;;;23.30;60.82;100242.22;6213980;23;20244;-86
2022/09/21 01:54:23;;;;;;;28.23;22.13;;;;;;;23.47;60.19;100261.72;6214044;23;20347;-86
2022/09/21 01:57:13;;;;;;;23.08;19.95;;;;;;;23.56;60.04;100264.34;6215097;23;20119;-87
2022/09/21 01:59:53;;;;;;;21.90;19.63;;;;;;;23.42;59.99;100245.75;6188363;23;20057;-86
2022/09/21 02:02:30;;;;;;;27.13;19.58;;;;;;;23.44;60.17;100247.41;6165170;23;20079;-86
2022/09/21 02:05:01;;;;;;;22.42;19.98;;;;;;;23.42;59.95;100236.38;6189441;23;20021;-86
2022/09/21 02:07:28;;;;;;;26.58;19.20;;;;;;;23.08;60.22;100189.69;6192064;23;20016;-86
2022/09/21 02:09:55;;;;;;;22.38;18.80;;;;;;;23.38;59.87;100244.88;6192848;23;20443;-85
2022/09/21 02:12:22;;;;;;;24.52;20.75;;;;;;;23.36;60.31;100241.56;6192554;23;20031;-87
2022/09/21 02:14:54;;;;;;;25.05;19.95;;;;;;;23.20;60.31;100226.53;6193496;23;20020;-86
2022/09/21 02:17:52;;;;;;;23.90;20.45;;;;;;;22.93;60.03;100186.50;6193492;23;20076;-87
2022/09/21 02:20:35;;;;;;;21.23;19.02;;;;;;;23.42;60.13;100251.47;6219867;23;20024;-86
2022/09/21 02:23:13;;;;;;;20.98;19.00;;;;;;;23.29;60.11;100223.50;6214303;23;20020;-86
2022/09/21 02:25:40;;;;;;;20.25;17.15;;;;;;;23.46;60.49;100259.25;6235910;23;20026;-84
2022/09/21 02:28:14;;;;;;;19.08;16.98;;;;;;;23.27;60.38;100226.69;6205335;23;20008;-85
2022/09/21 02:30:49;;;;;;;18.65;16.90;;;;;;;23.18;59.96;100203.31;6240606;23;20068;-84
2022/09/21 02:33:34;;;;;;;22.88;18.70;;;;;;;23.45;60.13;100247.00;6212014;23;20013;-87
2022/09/21 02:36:01;;;;;;;19.35;17.55;;;;;;;23.48;60.32;100260.50;6212678;23;20081;-85
2022/09/21 02:38:38;;;;;;;26.98;19.98;;;;;;;23.42;59.83;100245.75;6220790;23;20024;-87
2022/09/21 02:41:15;;;;;;;20.67;18.58;;;;;;;23.17;59.90;100210.19;6187514;23;20021;-86
2022/09/21 02:44:05;;;;;;;23.33;18.35;;;;;;;23.04;60.04;100197.31;6188364;23;20455;-85
2022/09/21 02:47:03;;;;;;;25.73;19.10;;;;;;;23.10;60.05;100210.88;6187586;23;20079;-85
2022/09/21 02:49:37;;;;;;;21.45;18.92;;;;;;;23.31;60.36;100250.38;6169115;23;20475;-85
2022/09/21 02:52:10;;;;;;;23.73;20.38;;;;;;;23.17;60.42;100227.28;6186668;23;20032;-85
2022/09/21 02:54:40;;;;;;;25.50;19.67;;;;;;;22.81;60.42;100175.25;6188326;23;20021;-85
2022/09/21 02:57:07;;;;;;;;;;;;;;;23.09;60.01;100236.91;6216183;23;20021;-86
2022/09/21 02:59:34;;;;;;;19.98;17.90;;;;;;;23.11;60.24;100243.88;6214711;23;19923;-86
2022/09/21 03:02:01;;;;;;;22.35;19.88;;;;;;;23.00;60.26;100227.72;6186773;23;20028;-86
2022/09/21 03:04:27;;;;;;;21.40;19.17;;;;;;;23.04;60.34;100238.03;6211893;23;20095;-85
2022/09/21 03:06:55;;;;;;;21.42;19.13;;;;;;;23.09;60.51;100245.44;6213164;23;20031;-86
2022/09/21 03:09:23;;;;;;;20.83;17.77;;;;;;;22.80;60.79;100202.03;6188797;23;20017;-85
2022/09/21 03:11:50;;;;;;;22.48;20.15;;;;;;;22.88;60.66;100205.88;6214017;23;20032;-85
2022/09/21 03:14:18;;;;;;;22.38;20.05;;;;;;;22.83;61.10;100203.31;6214011;23;20021;-86
2022/09/21 03:16:46;;;;;;;22.13;19.90;;;;;;;22.84;61.26;100214.34;6187095;23;20021;-86
2022/09/21 03:19:13;;;;;;;20.83;18.48;;;;;;;23.03;61.46;100244.06;6214651;23;20325;-86
2022/09/21 03:21:41;;;;;;;26.98;20.50;;;;;;;23.03;61.48;100238.38;6187770;23;20020;-85
2022/09/21 03:24:10;;;;;;;20.80;18.58;;;;;;;23.03;61.58;100232.69;6188657;23;20107;-86
2022/09/21 03:26:37;;;;;;;21.70;18.75;;;;;;;22.87;61.30;100225.00;6215535;23;20440;-86
2022/09/21 03:29:04;;;;;;;21.15;17.85;;;;;;;22.86;61.00;100223.31;6187372;23;20351;-85
2022/09/21 03:31:31;;;;;;;19.60;17.65;;;;;;;22.75;61.34;100199.50;6187001;23;20025;-85
2022/09/21 03:33:58;;;;;;;23.88;18.55;;;;;;;22.67;61.21;100200.53;6190790;23;20031;-85
2022/09/21 03:36:25;;;;;;;23.27;17.77;;;;;;;22.81;61.43;100217.94;6214182;23;20025;-84
2022/09/21 03:38:52;;;;;;;24.10;18.48;;;;;;;22.65;61.61;100205.75;6213751;23;20021;-84
2022/09/21 03:41:19;;;;;;;18.60;16.73;;;;;;;22.88;60.99;100211.59;6188426;23;20016;-84
2022/09/21 03:43:46;;;;;;;21.67;18.17;;;;;;;22.93;61.01;100211.31;6187900;23;20028;-86
2022/09/21 03:46:13;;;;;;;21.05;16.60;;;;;;;22.91;60.97;100190.91;6187757;23;20039;-84
2022/09/21 03:48:41;;;;;;;18.13;16.50;;;;;;;23.24;61.02;100244.53;6215081;23;20012;-84
2022/09/21 03:51:08;;;;;;;17.27;15.75;;;;;;;23.20;61.03;100215.16;6213820;23;20021;-86
2022/09/21 03:53:36;;;;;;;22.33;18.75;;;;;;;22.83;60.55;100149.22;6214721;23;20027;-86
2022/09/21 03:56:04;;;;;;;16.58;15.23;;;;;;;23.31;60.89;100224.75;6188603;23;20137;-86
2022/09/21 03:58:30;;;;;;;18.98;16.92;;;;;;;23.21;60.58;100216.78;6214286;23;20021;-87
2022/09/21 04:01:02;;;;;;;19.45;17.55;;;;;;;23.32;60.67;100243.50;6189630;23;20051;-86
2022/09/21 04:03:29;;;;;;;19.90;16.50;;;;;;;23.09;60.34;100214.09;6190753;23;20025;-86
2022/09/21 04:05:56;;;;;;;18.98;17.08;;;;;;;22.97;60.23;100200.81;6214374;23;20028;-84
2022/09/21 04:08:22;;;;;;;18.92;17.00;;;;;;;23.13;60.58;100220.69;6188331;23;20082;-85
2022/09/21 04:10:49;;;;;;;21.50;19.30;;;;;;;23.20;60.58;100243.63;6189639;23;20048;-85
2022/09/21 04:13:16;;;;;;;23.33;18.80;;;;;;;22.54;60.54;100136.41;6189007;23;20031;-85
2022/09/21 04:15:43;;;;;;;19.38;17.25;;;;;;;23.04;60.91;100222.94;6213477;23;20489;-85
2022/09/21 04:18:10;;;;;;;19.08;17.17;;;;;;;23.06;60.96;100215.66;6212399;23;20092;-86
2022/09/21 04:20:37;;;;;;;19.92;17.15;;;;;;;23.05;60.58;100224.59;6187616;23;20021;-86
2022/09/21 04:23:05;;;;;;;17.92;16.27;;;;;;;22.91;61.02;100211.66;6213350;23;20017;-84
2022/09/21 04:25:32;;;;;;;18.73;16.88;;;;;;;22.82;60.81;100193.13;6188405;23;20028;-85
2022/09/21 04:27:59;;;;;;;19.52;17.63;;;;;;;22.66;60.70;100174.06;6189307;23;20027;-85
2022/09/21 04:30:26;;;;;;;19.92;18.15;;;;;;;22.89;60.69;100216.91;6192473;23;20021;-85
2022/09/21 04:32:53;;;;;;;21.55;19.38;;;;;;;22.91;61.04;100225.09;6190503;23;20071;-87
2022/09/21 04:35:20;;;;;;;18.60;16.73;;;;;;;22.54;60.88;100164.84;6192441;23;20020;-85
2022/09/21 04:37:47;;;;;;;27.08;18.65;;;;;;;22.79;61.38;100220.31;6190315;23;20024;-86
2022/09/21 04:40:13;;;;;;;19.80;17.77;;;;;;;22.79;61.19;100228.88;6195457;23;20025;-86
2022/09/21 04:42:40;;;;;;;22.45;17.35;;;;;;;22.90;61.44;100240.50;6223444;23;20033;-85
2022/09/21 04:45:08;;;;;;;19.15;16.80;;;;;;;22.44;61.43;100157.72;6199224;23;20020;-85
2022/09/21 04:47:35;;;;;;;21.33;16.67;;;;;;;22.45;61.28;100170.72;6196840;23;20017;-85
2022/09/21 04:50:02;;;;;;;22.02;17.10;;;;;;;22.79;61.71;100222.34;6190612;23;20474;-85
2022/09/21 04:52:28;;;;;;;20.52;15.95;;;;;;;22.54;61.40;100190.47;6193490;23;20047;-87
2022/09/21 04:54:56;;;;;;;20.55;16.73;;;;;;;22.67;61.48;100217.63;6205247;23;20025;-87
2022/09/21 04:57:22;;;;;;;18.35;16.33;;;;;;;22.60;61.87;100214.59;6232169;23;20043;-86
2022/09/21 04:59:49;;;;;;;17.98;16.10;;;;;;;22.65;61.58;100223.66;6201166;23;20087;-86
2022/09/21 05:02:16;;;;;;;18.13;16.17;;;;;;;22.73;61.75;100232.38;6188387;23;20020;-85
2022/09/21 05:04:43;;;;;;;17.67;15.88;;;;;;;22.68;62.14;100233.50;6188660;23;20363;-85
2022/09/21 05:07:16;;;;;;;18.80;16.55;;;;;;;22.66;61.75;100230.16;6188339;23;20020;-85
2022/09/21 05:12:31;;;;;;;17.80;16.15;;;;;;;22.52;62.38;100229.84;6212575;23;20027;-85
2022/09/21 05:14:59;;;;;;;16.67;15.25;;;;;;;22.37;62.77;100218.09;6189177;23;20027;-84
2022/09/21 05:17:26;;;;;;;17.63;15.85;;;;;;;22.53;62.92;100246.56;6186522;23;20043;-85
2022/09/21 05:19:53;;;;;;;17.10;15.27;;;;;;;22.01;62.87;100185.06;6187634;23;20408;-86
2022/09/21 05:22:21;;;;;;;18.10;16.25;;;;;;;22.50;62.42;100249.31;6213129;23;20024;-86
2022/09/21 05:24:47;;;;;;;18.75;16.40;;;;;;;22.31;62.62;100225.28;6213834;23;20021;-86
2022/09/21 05:27:15;;;;;;;17.40;15.77;;;;;;;22.56;62.34;100253.50;6186995;23;20021;-85
2022/09/21 05:29:42;;;;;;;17.75;15.93;;;;;;;22.39;62.57;100235.66;6214052;23;20023;-86
2022/09/21 05:32:33;;;;;;;21.63;16.60;;;;;;;22.43;62.86;100267.84;6213907;23;20025;-85
2022/09/21 05:35:16;;;;;;;18.80;16.95;;;;;;;22.30;63.38;100266.28;6188882;23;20020;-85
2022/09/21 05:37:46;;;;;;;17.90;15.95;;;;;;;22.21;63.77;100271.34;6187315;23;20100;-85
2022/09/21 05:40:13;;;;;;;18.08;15.73;;;;;;;22.00;63.66;100245.97;6188111;23;20021;-86
2022/09/21 05:42:41;;;;;;;21.48;16.77;;;;;;;22.23;63.51;100251.91;6187292;23;20028;-84
2022/09/21 05:45:13;;;;;;;17.92;16.10;;;;;;;22.40;63.26;100245.00;6213302;23;20025;-85
2022/09/21 05:47:51;;;;;;;24.35;18.42;;;;;;;22.41;63.35;100275.09;6184561;23;20409;-83
2022/09/21 05:50:45;;;;;;;18.50;16.85;;;;;;;22.41;63.86;100278.75;6211879;23;20017;-82
2022/09/21 05:53:28;;;;;;;18.60;16.75;;;;;;;22.43;63.77;100278.41;6212573;23;20487;-84
2022/09/21 05:56:05;;;;;;;19.98;17.98;;;;;;;22.47;63.73;100277.31;6213204;23;20147;-93
2022/09/21 05:58:51;;;;;;;20.45;16.33;;;;;;;22.73;63.93;100275.88;6213836;23;20020;-83
2022/09/21 06:01:26;;;;;;;19.90;17.95;;;;;;;22.98;63.96;100276.53;6212600;23;20029;-83
2022/09/21 06:03:55;;;;;;;17.73;16.00;;;;;;;23.01;63.29;100235.91;6211725;23;20020;-88
2022/09/21 06:06:22;;;;;;;19.80;17.88;;;;;;;23.01;63.02;100255.84;6186828;23;20020;-85
2022/09/21 06:08:49;;;;;;;17.75;15.95;;;;;;;23.12;63.28;100259.75;6186699;23;20017;-83
2022/09/21 06:11:16;;;;;;;24.38;17.75;;;;;;;23.12;62.93;100276.03;6212244;23;20037;-84
2022/09/21 06:13:45;;;;;;;17.17;15.47;;;;;;;22.81;62.11;100235.03;6210340;23;20463;-88
2022/09/21 06:16:12;;;;;;;19.05;17.05;;;;;;;22.93;62.49;100289.00;6186388;23;20024;-90
2022/09/21 06:18:41;;;;;;;17.73;16.13;;;;;;;22.51;62.70;100233.88;6187262;23;20420;-88
2022/09/21 06:21:08;;;;;;;19.45;17.52;;;;;;;22.86;62.79;100300.19;6186329;23;20020;-86
2022/09/21 06:23:36;;;;;;;19.10;16.52;;;;;;;22.44;62.46;100266.66;6187754;23;20474;-90
2022/09/21 06:26:04;;;;;;;17.17;15.63;;;;;;;22.14;63.09;100245.53;6186181;23;20086;-93
2022/09/21 06:28:31;;;;;;;19.08;17.42;;;;;;;21.83;63.60;100212.19;6211312;23;20059;-87
2022/09/21 06:30:58;;;;;;;17.80;14.18;;;;;;;22.26;63.58;100313.75;6210477;23;20028;-91
2022/09/21 06:33:25;;;;;;;17.67;15.88;;;;;;;22.45;63.92;100327.22;6185209;23;20027;-85
2022/09/21 06:35:57;;;;;;;17.02;15.52;;;;;;;22.57;63.89;100323.47;6186305;23;20029;-93
2022/09/21 06:38:25;;;;;;;15.80;14.60;;;;;;;22.54;63.58;100333.56;6209585;23;20482;-85
2022/09/21 06:40:53;;;;;;;19.60;18.03;;;;;;;22.40;63.64;100318.97;6185921;23;20079;-85
2022/09/21 06:43:21;;;;;;;17.52;16.00;;;;;;;21.89;63.43;100222.13;6211944;23;20486;-86
2022/09/21 06:45:56;;;;;;;15.63;14.18;;;;;;;22.52;63.37;100343.66;6186435;23;20035;-84
2022/09/21 06:48:23;;;;;;;18.25;16.80;;;;;;;22.57;63.54;100341.38;6186235;23;20071;-85
2022/09/21 06:50:50;;;;;;;17.55;15.93;;;;;;;22.04;63.39;100271.66;6212926;23;20016;-86
2022/09/21 06:53:17;;;;;;;16.58;15.20;;;;;;;22.16;63.20;100257.41;6213289;23;20025;-86
2022/09/21 06:55:44;;;;;;;19.30;17.45;;;;;;;22.61;63.04;100332.94;6211693;23;20029;-86
2022/09/21 06:58:11;;;;;;;19.77;17.20;;;;;;;22.54;63.19;100325.03;6185478;23;20029;-85
2022/09/21 07:00:38;;;;;;;18.65;16.95;;;;;;;22.77;62.94;100356.53;6214431;23;20020;-85
2022/09/21 07:03:05;;;;;;;17.75;15.98;;;;;;;22.76;63.13;100354.84;6188376;23;20024;-84
2022/09/21 07:05:32;;;;;;;20.80;18.80;;;;;;;22.73;62.95;100314.91;6188188;23;20020;-84
2022/09/21 07:07:59;;;;;;;23.15;20.88;;;;;;;22.80;62.55;100309.41;6215614;23;20024;-85
2022/09/21 07:10:27;;;;;;;20.55;18.45;;;;;;;23.19;62.74;100361.66;6189966;23;20021;-85
2022/09/21 07:12:54;;;;;;;20.85;18.80;;;;;;;23.23;62.57;100348.31;6188791;23;20111;-86
2022/09/21 07:15:21;;;;;;;28.20;21.90;;;;;;;23.20;62.81;100329.09;6214965;23;20021;-85
2022/09/21 07:17:48;;;;;;;21.80;19.90;;;;;;;23.31;62.99;100340.75;6187913;23;20024;-86
2022/09/21 07:20:18;;;;;;;22.35;20.05;;;;;;;23.53;62.44;100364.88;6188023;23;20059;-85
2022/09/21 07:22:46;;;;;;;19.42;17.45;;;;;;;23.35;62.67;100325.41;6214321;23;20029;-84
2022/09/21 07:25:13;;;;;;;27.20;18.90;;;;;;;23.41;62.85;100346.69;6185565;23;20353;-90
2022/09/21 07:27:40;;;;;;;23.77;19.45;;;;;;;23.29;63.15;100315.47;6212924;23;20035;-82
2022/09/21 07:30:08;;;;;;;26.88;19.05;;;;;;;23.63;62.59;100361.41;6187788;23;20017;-96
2022/09/21 07:32:36;;;;;;;23.98;20.05;;;;;;;23.06;63.65;100311.69;6189619;23;20021;-88
2022/09/21 07:35:04;;;;;;;29.52;23.38;;;;;;;23.08;63.29;100326.41;6214398;23;20020;-88
2022/09/21 07:37:31;;;;;;;33.08;24.77;;;;;;;23.09;64.20;100385.81;6214664;23;20027;-92
2022/09/21 07:39:58;;;;;;;33.25;22.33;;;;;;;22.68;64.50;100327.41;6215819;23;20411;-91
2022/09/21 07:42:26;;;;;;;32.38;23.45;;;;;;;22.44;65.24;100309.34;6189405;23;20368;-93
2022/09/21 07:44:55;;;;;;;29.63;22.35;;;;;;;22.97;65.08;100374.53;6192945;23;20063;-95
2022/09/21 07:47:30;;;;;;;29.33;20.48;;;;;;;22.52;65.48;100333.09;6193234;23;20074;-90
2022/09/21 07:49:57;;;;;;;32.35;22.20;;;;;;;22.65;66.06;100370.84;6216895;23;20016;-90
2022/09/21 07:52:23;;;;;;;35.75;23.90;;;;;;;22.70;66.52;100387.63;6192457;23;20046;-86
2022/09/21 07:54:50;;;;;;;38.00;22.67;;;;;;;21.98;66.86;100263.41;6195464;23;20460;-93
2022/09/21 08:00:08;;;;;;;24.70;19.17;;;;;;;22.45;67.15;100335.75;6222829;23;20016;-96
2022/09/21 08:02:35;;;;;;;33.22;21.70;;;;;;;22.45;66.95;100328.03;6197774;23;20025;-88
2022/09/21 08:05:03;;;;;;;38.00;25.88;;;;;;;22.49;66.90;100345.22;6187517;23;20024;-87
2022/09/21 08:07:30;;;;;;;37.03;25.67;;;;;;;22.71;66.81;100381.59;6214286;23;20024;-86
2022/09/21 08:09:58;;;;;;;31.48;23.98;;;;;;;22.60;67.08;100357.72;6191398;23;20017;-90
2022/09/21 08:12:24;;;;;;;31.38;22.80;;;;;;;22.96;67.13;100403.38;6197852;23;20048;-94
2022/09/21 08:14:51;;;;;;;39.38;25.73;;;;;;;22.92;66.64;100391.88;6227288;23;20027;-92
2022/09/21 08:17:18;;;;;;;25.65;20.60;;;;;;;22.62;66.91;100337.41;6224705;23;20025;-94
2022/09/21 08:19:45;;;;;;;28.13;21.33;;;;;;;22.68;67.22;100364.41;6236838;23;20028;-91
2022/09/21 08:22:12;;;;;;;32.83;23.33;;;;;;;22.78;67.44;100398.03;6215514;23;20014;-90
2022/09/21 08:24:42;;;;;;;37.53;22.83;;;;;;;22.86;67.57;100394.16;6225569;23;20060;-90
2022/09/21 08:27:10;;;;;;;24.95;22.25;;;;;;;22.79;66.79;100365.50;6186769;23;20025;-91
2022/09/21 08:29:36;;;;;;;25.45;19.90;;;;;;;22.70;66.99;100342.94;6213188;23;20017;-91
2022/09/21 08:32:03;;;;;;;29.05;21.70;;;;;;;22.85;66.83;100361.19;6182254;23;20031;-88
2022/09/21 08:34:30;;;;;;;26.00;21.95;;;;;;;23.10;66.57;100398.03;6214053;23;20456;-87
2022/09/21 08:36:57;;;;;;;26.42;20.63;;;;;;;23.09;66.65;100373.59;6212844;23;20355;-88
2022/09/21 08:39:24;;;;;;;25.38;18.75;;;;;;;23.25;66.00;100394.34;6212469;23;20452;-91
2022/09/21 08:42:09;;;;;;;25.60;19.20;;;;;;;23.39;66.20;100394.69;6186818;23;20578;-92
2022/09/21 08:44:53;;;;;;;26.90;21.90;;;;;;;23.32;65.96;100394.53;6213852;23;20028;-89
2022/09/21 08:47:35;;;;;;;21.63;19.67;;;;;;;23.34;65.97;100408.38;6215649;23;20031;-91
2022/09/21 08:50:04;;;;;;;27.08;22.15;;;;;;;23.37;66.00;100408.47;6212087;23;20017;-92
2022/09/21 08:52:32;;;;;;;33.50;23.33;;;;;;;23.40;65.11;100399.19;6216375;23;20456;-88
2022/09/21 08:55:05;;;;;;;27.60;21.70;;;;;;;23.42;64.88;100402.50;6185582;23;20020;-88
2022/09/21 08:57:33;;;;;;;26.75;19.75;;;;;;;23.32;65.06;100399.41;6215814;23;20042;-94
2022/09/21 09:00:01;;;;;;;31.00;19.15;;;;;;;23.53;65.54;100410.47;6210293;23;20020;-91
2022/09/21 09:03:01;;;;;;;23.67;18.75;;;;;;;23.87;64.83;100435.31;6211132;23;20024;-85
2022/09/21 09:05:47;;;;;;;28.73;24.65;;;;;;;23.87;64.70;100432.44;6206834;23;20463;-89
2022/09/21 09:08:20;;;;;;;24.67;20.48;;;;;;;23.80;64.54;100429.44;6186796;23;20043;-89
2022/09/21 09:11:08;;;;;;;27.40;21.92;;;;;;;23.88;64.43;100419.00;6213982;23;20025;-88
2022/09/21 09:14:05;;;;;;;29.05;22.58;;;;;;;23.70;64.20;100381.56;6214508;23;20027;-89
2022/09/21 09:16:53;;;;;;;27.30;21.02;;;;;;;24.12;63.74;100426.44;6215174;23;20333;-89
2022/09/21 09:19:46;;;;;;;27.87;24.80;;;;;;;24.12;63.76;100420.75;6186707;23;20020;-86
2022/09/21 09:32:52;;;;;;;27.90;19.58;;;;;;;24.94;62.76;100421.50;6144451;23;20133;-85
2022/09/21 09:35:21;;;;;;;23.77;19.58;;;;;;;25.14;62.23;100423.13;6125644;23;20026;-82
2022/09/21 09:37:50;;;;;;;27.77;20.25;;;;;;;25.39;61.63;100425.56;6125419;23;20025;-82
2022/09/21 09:40:33;;;;;;;27.35;21.48;;;;;;;25.48;61.55;100418.34;6164113;23;20017;-94
2022/09/21 09:43:20;;;;;;;23.58;20.23;;;;;;;25.48;61.06;100411.81;6152720;23;20031;-88
2022/09/21 09:45:58;;;;;;;23.02;19.65;;;;;;;26.11;60.70;100427.41;6124875;23;20022;-88
2022/09/21 09:48:37;;;;;;;23.70;21.15;;;;;;;26.78;59.82;100426.56;6150424;23;20036;-90
2022/09/21 09:51:04;;;;;;;26.98;23.65;;;;;;;27.48;58.72;100430.44;6148869;23;20444;-92
2022/09/21 09:53:31;;;;;;;28.67;18.52;;;;;;;28.02;57.83;100414.41;6149985;23;20033;-93
2022/09/21 09:55:59;;;;;;;20.98;18.88;;;;;;;28.68;56.20;100417.09;6187126;23;20026;-89
2022/09/21 09:58:43;;;;;;;22.40;20.17;;;;;;;29.30;54.77;100425.41;6215293;23;20509;-85
2022/09/21 10:01:38;;;;;;;20.35;18.35;;;;;;;29.86;54.53;100417.91;6184800;23;20472;-85
2022/09/21 10:04:09;;;;;;;20.30;18.00;;;;;;;30.54;52.57;100405.28;6212677;23;20025;-92
2022/09/21 10:06:37;;;;;;;21.88;18.80;;;;;;;30.82;51.29;100393.59;6213903;23;20028;-89
2022/09/21 10:09:19;;;;;;;22.80;18.63;;;;;;;30.79;50.76;100405.97;6213505;23;20095;-91
2022/09/21 10:11:46;;;;;;;19.67;17.52;;;;;;;30.96;50.14;100407.06;6220141;23;20040;-93
2022/09/21 10:14:19;;;;;;;19.15;17.20;;;;;;;31.63;49.02;100416.41;6211574;23;20035;-86
2022/09/21 10:16:50;;;;;;;19.05;17.10;;;;;;;31.92;47.97;100376.47;6218923;23;20022;-86
2022/09/21 10:19:26;;;;;;;20.02;18.13;;;;;;;32.48;47.32;100411.69;6189891;23;20031;-84
2022/09/21 10:22:02;;;;;;;19.35;16.58;;;;;;;32.82;46.69;100412.81;6191431;23;20028;-84
2022/09/21 10:24:34;;;;;;;20.35;17.73;;;;;;;32.95;46.14;100423.38;6190519;23;20460;-84
2022/09/21 10:27:13;;;;;;;18.52;16.58;;;;;;;33.14;45.96;100421.84;6187840;23;20028;-84
2022/09/21 10:29:45;;;;;;;19.67;17.77;;;;;;;33.53;45.11;100417.44;6215275;23;20016;-83
2022/09/21 10:32:11;;;;;;;16.77;15.18;;;;;;;33.89;44.27;100419.69;6189293;23;20025;-85
2022/09/21 10:34:58;;;;;;;;;;;;;;;33.06;45.93;100414.56;6192342;23;20027;-85
2022/09/21 10:37:27;;;;;;;20.58;18.58;;;;;;;33.27;44.62;100404.69;6219263;23;19919;-83
2022/09/21 10:39:55;;;;;;;19.95;18.02;;;;;;;33.66;43.93;100418.44;6217962;23;20376;-84
2022/09/21 10:42:22;;;;;;;21.60;19.90;;;;;;;33.63;43.42;100398.25;6192333;23;20311;-83
2022/09/21 10:45:05;;;;;;;16.98;15.43;;;;;;;33.43;43.53;100291.88;6191906;23;20027;-81
2022/09/21 10:47:38;;;;;;;18.15;16.35;;;;;;;34.79;41.74;100409.88;6214388;23;20030;-81
2022/09/21 10:50:21;;;;;;;16.38;14.77;;;;;;;35.08;41.43;100387.63;6184282;23;20048;-84
2022/09/21 10:52:49;;;;;;;17.10;15.30;;;;;;;35.42;40.61;100394.19;6185183;23;20023;-84
2022/09/21 10:55:21;;;;;;;17.30;15.50;;;;;;;35.58;39.76;100391.31;6187009;23;20029;-82
2022/09/21 10:57:49;;;;;;;16.90;15.38;;;;;;;35.16;39.77;100365.03;6186013;23;20025;-83
2022/09/21 11:00:30;;;;;;;17.00;15.25;;;;;;;35.08;40.39;100390.53;6187062;23;20027;-82
2022/09/21 11:03:00;;;;;;;17.20;15.63;;;;;;;35.43;39.81;100385.06;6213228;23;20025;-83
2022/09/21 11:05:32;;;;;;;16.42;14.88;;;;;;;35.67;39.38;100393.56;6209682;23;20024;-81
2022/09/21 11:08:13;;;;;;;16.80;15.27;;;;;;;36.00;39.22;100377.69;6214183;23;20024;-82
2022/09/21 11:10:59;;;;;;;15.85;14.40;;;;;;;36.33;38.07;100383.31;6214403;23;20066;-83
2022/09/21 11:13:32;;;;;;;15.93;14.30;;;;;;;36.56;37.36;100385.13;6211163;23;20036;-83
2022/09/21 11:16:27;;;;;;;14.98;13.57;;;;;;;36.60;36.87;100385.03;6212512;23;20028;-83
2022/09/21 11:19:16;;;;;;;14.85;13.48;;;;;;;36.75;36.92;100374.53;6211570;23;20025;-84
2022/09/21 11:22:01;;;;;;;17.17;15.68;;;;;;;37.05;36.35;100381.06;6213034;23;20116;-81
2022/09/21 11:24:34;;;;;;;17.33;15.45;;;;;;;37.04;36.44;100386.09;6212807;23;20025;-81
2022/09/21 11:27:15;;;;;;;14.50;13.35;;;;;;;37.20;35.59;100370.56;6214585;23;20035;-81
2022/09/21 11:30:13;;;;;;;15.32;13.48;;;;;;;37.07;36.37;100375.59;6212549;23;20024;-82
2022/09/21 11:33:06;;;;;;;17.40;15.95;;;;;;;37.42;35.31;100388.91;6213884;23;20494;-82
2022/09/21 11:35:44;;;;;;;13.52;12.52;;;;;;;37.78;34.73;100376.00;6180422;23;20028;-81
2022/09/21 11:38:16;;;;;;;15.30;13.85;;;;;;;38.28;34.60;100373.28;6212350;23;20504;-80
2022/09/21 11:41:07;;;;;;;14.93;13.65;;;;;;;38.78;33.62;100372.09;6212342;23;20021;-81
2022/09/21 11:44:00;;;;;;;17.50;16.08;;;;;;;38.90;33.65;100375.41;6186296;23;20025;-81
2022/09/21 11:46:41;;;;;;;18.45;16.88;;;;;;;38.94;32.90;100373.13;6212330;23;20054;-81
2022/09/21 11:49:13;;;;;;;15.32;13.95;;;;;;;39.09;32.51;100377.09;6212519;23;20028;-82